Stoney Hill, South Carolina
Current Conditions -  °F | °C
As of 11:15 AM on Monday 26 Jan 2015 (Local Time) from KEOE Reporting Station
Scattered Clouds Scattered Clouds  
Wind Chill: 52°   Ceiling: Unl
Heat Index: 52°   Visibility: 10mi
Dew Point: 37°   Wind: 15mph
Humidity: 58%   Direction: 310°NW
Pressure: 29.71"   Gusts: 21mph
Location:  34.1808°N, 81.5344°W
Report Text: KEOE 261615Z AUTO 31013G18KT 10SM SCT031 11/03 A2971 RMK AO2
Loading
Personal Weather Stations






























Interactive Weather Map New forecast layout! Learn more

10-Day Weather Forecast

Advertisements
Track Severe Weather on mobile